sensor_id;sensor_type;location;lat;lon;timestamp;P1;durP1;ratioP1;P2;durP2;ratioP2
75061;SDS011;63641;46.526;24.612;2023-06-05T00:00:32;2.72;;;2.50;;
75061;SDS011;63641;46.526;24.612;2023-06-05T00:02:58;3.08;;;2.85;;
75061;SDS011;63641;46.526;24.612;2023-06-05T00:05:25;2.88;;;2.40;;
75061;SDS011;63641;46.526;24.612;2023-06-05T00:07:53;2.97;;;2.75;;
75061;SDS011;63641;46.526;24.612;2023-06-05T00:10:22;3.28;;;2.67;;
75061;SDS011;63641;46.526;24.612;2023-06-05T00:12:49;2.80;;;2.40;;
75061;SDS011;63641;46.526;24.612;2023-06-05T00:15:16;5.70;;;2.30;;
75061;SDS011;63641;46.526;24.612;2023-06-05T00:17:43;4.15;;;2.80;;
75061;SDS011;63641;46.526;24.612;2023-06-05T00:20:11;3.47;;;2.60;;
75061;SDS011;63641;46.526;24.612;2023-06-05T00:22:37;3.33;;;2.42;;
75061;SDS011;63641;46.526;24.612;2023-06-05T00:25:05;3.55;;;2.47;;
75061;SDS011;63641;46.526;24.612;2023-06-05T00:27:33;4.38;;;2.67;;
75061;SDS011;63641;46.526;24.612;2023-06-05T00:29:59;5.30;;;3.10;;
75061;SDS011;63641;46.526;24.612;2023-06-05T00:32:26;2.88;;;2.42;;
75061;SDS011;63641;46.526;24.612;2023-06-05T00:34:53;2.88;;;2.63;;
75061;SDS011;63641;46.526;24.612;2023-06-05T00:37:20;2.83;;;2.53;;
75061;SDS011;63641;46.526;24.612;2023-06-05T00:39:47;2.40;;;2.20;;
75061;SDS011;63641;46.526;24.612;2023-06-05T00:42:13;3.15;;;2.22;;
75061;SDS011;63641;46.526;24.612;2023-06-05T00:44:40;2.72;;;2.47;;
75061;SDS011;63641;46.526;24.612;2023-06-05T00:47:07;4.07;;;2.58;;
75061;SDS011;63641;46.526;24.612;2023-06-05T00:49:34;2.67;;;2.47;;
75061;SDS011;63641;46.526;24.612;2023-06-05T00:52:04;3.95;;;2.33;;
75061;SDS011;63641;46.526;24.612;2023-06-05T00:54:32;4.93;;;2.58;;
75061;SDS011;63641;46.526;24.612;2023-06-05T00:56:59;4.43;;;2.63;;
75061;SDS011;63641;46.526;24.612;2023-06-05T00:59:26;4.65;;;2.55;;
75061;SDS011;63641;46.526;24.612;2023-06-05T01:01:55;4.05;;;3.00;;
75061;SDS011;63641;46.526;24.612;2023-06-05T01:04:23;3.38;;;3.08;;
75061;SDS011;63641;46.526;24.612;2023-06-05T01:06:49;2.97;;;2.60;;
75061;SDS011;63641;46.526;24.612;2023-06-05T01:09:19;3.28;;;2.30;;
75061;SDS011;63641;46.526;24.612;2023-06-05T01:14:20;3.45;;;2.40;;
75061;SDS011;63641;46.526;24.612;2023-06-05T01:16:54;5.15;;;2.45;;
75061;SDS011;63641;46.526;24.612;2023-06-05T01:19:23;5.00;;;2.38;;
75061;SDS011;63641;46.526;24.612;2023-06-05T01:21:51;4.13;;;2.20;;
75061;SDS011;63641;46.526;24.612;2023-06-05T01:24:18;3.30;;;2.25;;
75061;SDS011;63641;46.526;24.612;2023-06-05T01:26:54;5.55;;;2.53;;
75061;SDS011;63641;46.526;24.612;2023-06-05T01:29:36;4.95;;;2.17;;
75061;SDS011;63641;46.526;24.612;2023-06-05T01:32:11;15.18;;;3.00;;
75061;SDS011;63641;46.526;24.612;2023-06-05T01:34:45;5.70;;;3.13;;
75061;SDS011;63641;46.526;24.612;2023-06-05T01:37:15;3.22;;;2.88;;
75061;SDS011;63641;46.526;24.612;2023-06-05T01:39:46;48.42;;;3.30;;
75061;SDS011;63641;46.526;24.612;2023-06-05T01:42:16;3.65;;;2.22;;
75061;SDS011;63641;46.526;24.612;2023-06-05T01:44:43;29.02;;;3.10;;
75061;SDS011;63641;46.526;24.612;2023-06-05T01:47:11;2.80;;;2.60;;
75061;SDS011;63641;46.526;24.612;2023-06-05T01:49:39;4.93;;;2.60;;
75061;SDS011;63641;46.526;24.612;2023-06-05T01:52:06;2.70;;;2.50;;
75061;SDS011;63641;46.526;24.612;2023-06-05T01:54:33;3.47;;;2.00;;
75061;SDS011;63641;46.526;24.612;2023-06-05T01:57:00;4.47;;;2.25;;
75061;SDS011;63641;46.526;24.612;2023-06-05T01:59:27;3.20;;;2.60;;
75061;SDS011;63641;46.526;24.612;2023-06-05T02:01:54;4.10;;;2.60;;
75061;SDS011;63641;46.526;24.612;2023-06-05T02:04:20;3.63;;;2.50;;
75061;SDS011;63641;46.526;24.612;2023-06-05T02:06:48;2.60;;;2.00;;
75061;SDS011;63641;46.526;24.612;2023-06-05T02:09:15;2.58;;;2.38;;
75061;SDS011;63641;46.526;24.612;2023-06-05T02:11:42;2.80;;;2.17;;
75061;SDS011;63641;46.526;24.612;2023-06-05T02:14:09;11.55;;;2.58;;
75061;SDS011;63641;46.526;24.612;2023-06-05T02:16:40;2.60;;;2.40;;
75061;SDS011;63641;46.526;24.612;2023-06-05T02:19:07;2.47;;;2.05;;
75061;SDS011;63641;46.526;24.612;2023-06-05T02:21:34;2.17;;;2.08;;
75061;SDS011;63641;46.526;24.612;2023-06-05T02:24:02;2.40;;;2.20;;
75061;SDS011;63641;46.526;24.612;2023-06-05T02:26:29;3.38;;;3.08;;
75061;SDS011;63641;46.526;24.612;2023-06-05T02:28:58;2.95;;;2.67;;
75061;SDS011;63641;46.526;24.612;2023-06-05T02:31:25;4.93;;;2.65;;
75061;SDS011;63641;46.526;24.612;2023-06-05T02:33:52;7.32;;;2.97;;
75061;SDS011;63641;46.526;24.612;2023-06-05T02:36:20;2.90;;;2.70;;
75061;SDS011;63641;46.526;24.612;2023-06-05T02:38:48;4.30;;;2.58;;
75061;SDS011;63641;46.526;24.612;2023-06-05T02:41:18;2.70;;;2.50;;
75061;SDS011;63641;46.526;24.612;2023-06-05T02:43:47;5.00;;;3.05;;
75061;SDS011;63641;46.526;24.612;2023-06-05T02:46:14;12.05;;;2.78;;
75061;SDS011;63641;46.526;24.612;2023-06-05T02:48:42;3.58;;;2.95;;
75061;SDS011;63641;46.526;24.612;2023-06-05T02:51:08;14.35;;;3.78;;
75061;SDS011;63641;46.526;24.612;2023-06-05T02:53:37;3.28;;;2.95;;
75061;SDS011;63641;46.526;24.612;2023-06-05T02:56:04;17.55;;;3.47;;
75061;SDS011;63641;46.526;24.612;2023-06-05T02:58:31;25.98;;;3.60;;
75061;SDS011;63641;46.526;24.612;2023-06-05T03:01:00;8.35;;;2.85;;
75061;SDS011;63641;46.526;24.612;2023-06-05T03:03:33;4.13;;;2.47;;
75061;SDS011;63641;46.526;24.612;2023-06-05T03:06:00;5.50;;;2.80;;
75061;SDS011;63641;46.526;24.612;2023-06-05T03:08:31;2.97;;;2.78;;
75061;SDS011;63641;46.526;24.612;2023-06-05T03:11:02;3.30;;;2.97;;
75061;SDS011;63641;46.526;24.612;2023-06-05T03:13:30;6.90;;;2.90;;
75061;SDS011;63641;46.526;24.612;2023-06-05T03:15:58;3.22;;;2.92;;
75061;SDS011;63641;46.526;24.612;2023-06-05T03:18:27;3.33;;;3.00;;
75061;SDS011;63641;46.526;24.612;2023-06-05T03:20:55;4.25;;;3.10;;
75061;SDS011;63641;46.526;24.612;2023-06-05T03:23:23;3.17;;;2.88;;
75061;SDS011;63641;46.526;24.612;2023-06-05T03:25:54;4.32;;;3.20;;
75061;SDS011;63641;46.526;24.612;2023-06-05T03:28:22;9.07;;;3.28;;
75061;SDS011;63641;46.526;24.612;2023-06-05T03:30:50;7.70;;;3.47;;
75061;SDS011;63641;46.526;24.612;2023-06-05T03:33:17;42.00;;;4.72;;
75061;SDS011;63641;46.526;24.612;2023-06-05T03:35:44;5.53;;;3.20;;
75061;SDS011;63641;46.526;24.612;2023-06-05T03:38:12;4.10;;;3.45;;
75061;SDS011;63641;46.526;24.612;2023-06-05T03:40:40;4.25;;;3.85;;
75061;SDS011;63641;46.526;24.612;2023-06-05T03:43:09;4.40;;;3.50;;
75061;SDS011;63641;46.526;24.612;2023-06-05T03:45:37;4.13;;;3.72;;
75061;SDS011;63641;46.526;24.612;2023-06-05T03:48:07;3.63;;;3.33;;
75061;SDS011;63641;46.526;24.612;2023-06-05T03:50:35;6.03;;;3.42;;
75061;SDS011;63641;46.526;24.612;2023-06-05T03:53:04;3.92;;;3.25;;
75061;SDS011;63641;46.526;24.612;2023-06-05T03:55:32;4.45;;;3.45;;
75061;SDS011;63641;46.526;24.612;2023-06-05T03:58:09;6.25;;;3.63;;
75061;SDS011;63641;46.526;24.612;2023-06-05T04:00:44;4.38;;;3.70;;
75061;SDS011;63641;46.526;24.612;2023-06-05T04:03:12;6.07;;;3.88;;
75061;SDS011;63641;46.526;24.612;2023-06-05T04:05:40;6.28;;;3.90;;
75061;SDS011;63641;46.526;24.612;2023-06-05T04:08:07;6.65;;;4.32;;
75061;SDS011;63641;46.526;24.612;2023-06-05T04:10:38;5.38;;;4.25;;
75061;SDS011;63641;46.526;24.612;2023-06-05T04:13:05;4.88;;;4.47;;
75061;SDS011;63641;46.526;24.612;2023-06-05T04:15:32;6.63;;;4.53;;
75061;SDS011;63641;46.526;24.612;2023-06-05T04:18:00;5.65;;;5.07;;
75061;SDS011;63641;46.526;24.612;2023-06-05T04:20:27;5.82;;;5.22;;
75061;SDS011;63641;46.526;24.612;2023-06-05T04:22:53;6.72;;;5.25;;
75061;SDS011;63641;46.526;24.612;2023-06-05T04:25:20;4.95;;;4.55;;
75061;SDS011;63641;46.526;24.612;2023-06-05T04:27:47;5.20;;;4.68;;
75061;SDS011;63641;46.526;24.612;2023-06-05T04:30:16;6.50;;;5.30;;
75061;SDS011;63641;46.526;24.612;2023-06-05T04:32:44;5.45;;;4.95;;
75061;SDS011;63641;46.526;24.612;2023-06-05T04:35:20;4.88;;;4.43;;
75061;SDS011;63641;46.526;24.612;2023-06-05T04:37:47;6.45;;;4.80;;
75061;SDS011;63641;46.526;24.612;2023-06-05T04:40:15;5.97;;;4.60;;
75061;SDS011;63641;46.526;24.612;2023-06-05T04:42:43;5.05;;;4.65;;
75061;SDS011;63641;46.526;24.612;2023-06-05T04:45:10;5.25;;;4.65;;
75061;SDS011;63641;46.526;24.612;2023-06-05T04:47:37;5.15;;;4.30;;
75061;SDS011;63641;46.526;24.612;2023-06-05T04:50:04;4.93;;;3.95;;
75061;SDS011;63641;46.526;24.612;2023-06-05T04:52:33;4.90;;;4.40;;
75061;SDS011;63641;46.526;24.612;2023-06-05T04:55:06;4.70;;;4.18;;
75061;SDS011;63641;46.526;24.612;2023-06-05T04:57:33;4.72;;;4.32;;
75061;SDS011;63641;46.526;24.612;2023-06-05T05:00:00;6.93;;;4.28;;
75061;SDS011;63641;46.526;24.612;2023-06-05T05:02:30;4.72;;;4.32;;
75061;SDS011;63641;46.526;24.612;2023-06-05T05:04:58;4.75;;;4.35;;
75061;SDS011;63641;46.526;24.612;2023-06-05T05:07:24;4.63;;;4.22;;
75061;SDS011;63641;46.526;24.612;2023-06-05T05:09:52;5.28;;;4.82;;
75061;SDS011;63641;46.526;24.612;2023-06-05T05:12:19;4.93;;;4.53;;
75061;SDS011;63641;46.526;24.612;2023-06-05T05:14:46;4.88;;;4.47;;
75061;SDS011;63641;46.526;24.612;2023-06-05T05:17:13;5.80;;;4.50;;
75061;SDS011;63641;46.526;24.612;2023-06-05T05:19:42;5.22;;;4.72;;
75061;SDS011;63641;46.526;24.612;2023-06-05T05:22:09;5.68;;;4.97;;
75061;SDS011;63641;46.526;24.612;2023-06-05T05:24:35;4.90;;;4.35;;
75061;SDS011;63641;46.526;24.612;2023-06-05T05:27:07;5.10;;;4.60;;
75061;SDS011;63641;46.526;24.612;2023-06-05T05:29:34;5.28;;;4.80;;
75061;SDS011;63641;46.526;24.612;2023-06-05T05:32:01;6.43;;;4.88;;
75061;SDS011;63641;46.526;24.612;2023-06-05T05:34:28;4.90;;;4.50;;
75061;SDS011;63641;46.526;24.612;2023-06-05T05:36:55;5.22;;;4.72;;
75061;SDS011;63641;46.526;24.612;2023-06-05T05:39:22;6.90;;;4.65;;
75061;SDS011;63641;46.526;24.612;2023-06-05T05:41:49;6.40;;;5.07;;
75061;SDS011;63641;46.526;24.612;2023-06-05T05:44:16;5.32;;;4.43;;
75061;SDS011;63641;46.526;24.612;2023-06-05T05:46:45;7.72;;;4.82;;
75061;SDS011;63641;46.526;24.612;2023-06-05T05:49:12;6.72;;;5.25;;
75061;SDS011;63641;46.526;24.612;2023-06-05T05:51:39;5.18;;;4.57;;
75061;SDS011;63641;46.526;24.612;2023-06-05T05:54:06;4.60;;;4.20;;
75061;SDS011;63641;46.526;24.612;2023-06-05T05:56:33;5.35;;;4.85;;
75061;SDS011;63641;46.526;24.612;2023-06-05T05:59:02;4.38;;;4.03;;
75061;SDS011;63641;46.526;24.612;2023-06-05T06:01:29;5.65;;;5.03;;
75061;SDS011;63641;46.526;24.612;2023-06-05T06:03:59;5.50;;;4.30;;
75061;SDS011;63641;46.526;24.612;2023-06-05T06:06:25;5.47;;;3.65;;
75061;SDS011;63641;46.526;24.612;2023-06-05T06:08:52;3.80;;;3.40;;
75061;SDS011;63641;46.526;24.612;2023-06-05T06:11:19;5.07;;;3.60;;
75061;SDS011;63641;46.526;24.612;2023-06-05T06:13:46;4.32;;;3.63;;
75061;SDS011;63641;46.526;24.612;2023-06-05T06:16:13;3.95;;;3.13;;
75061;SDS011;63641;46.526;24.612;2023-06-05T06:18:40;3.33;;;3.03;;
75061;SDS011;63641;46.526;24.612;2023-06-05T06:21:07;3.35;;;3.00;;
75061;SDS011;63641;46.526;24.612;2023-06-05T06:23:35;3.35;;;3.05;;
75061;SDS011;63641;46.526;24.612;2023-06-05T06:26:02;3.70;;;3.00;;
75061;SDS011;63641;46.526;24.612;2023-06-05T06:28:32;4.10;;;3.28;;
75061;SDS011;63641;46.526;24.612;2023-06-05T06:30:59;2.92;;;2.67;;
75061;SDS011;63641;46.526;24.612;2023-06-05T06:33:27;3.42;;;2.80;;
75061;SDS011;63641;46.526;24.612;2023-06-05T06:35:55;2.80;;;2.60;;
75061;SDS011;63641;46.526;24.612;2023-06-05T06:38:24;2.67;;;2.47;;
75061;SDS011;63641;46.526;24.612;2023-06-05T06:40:57;3.08;;;2.70;;
75061;SDS011;63641;46.526;24.612;2023-06-05T06:43:24;2.50;;;2.30;;
75061;SDS011;63641;46.526;24.612;2023-06-05T06:45:52;2.88;;;2.58;;
75061;SDS011;63641;46.526;24.612;2023-06-05T06:48:19;2.80;;;2.60;;
75061;SDS011;63641;46.526;24.612;2023-06-05T06:50:49;2.92;;;2.55;;
75061;SDS011;63641;46.526;24.612;2023-06-05T06:53:16;4.13;;;2.40;;
75061;SDS011;63641;46.526;24.612;2023-06-05T06:55:43;3.10;;;2.80;;
75061;SDS011;63641;46.526;24.612;2023-06-05T06:58:10;3.08;;;2.58;;
75061;SDS011;63641;46.526;24.612;2023-06-05T07:00:37;5.15;;;3.03;;
75061;SDS011;63641;46.526;24.612;2023-06-05T07:03:04;4.50;;;2.38;;
75061;SDS011;63641;46.526;24.612;2023-06-05T07:05:31;2.53;;;2.33;;
75061;SDS011;63641;46.526;24.612;2023-06-05T07:07:57;2.65;;;2.40;;
75061;SDS011;63641;46.526;24.612;2023-06-05T07:10:28;4.03;;;2.25;;
75061;SDS011;63641;46.526;24.612;2023-06-05T07:12:55;1.95;;;1.85;;
75061;SDS011;63641;46.526;24.612;2023-06-05T07:15:22;3.22;;;2.10;;
75061;SDS011;63641;46.526;24.612;2023-06-05T07:17:50;3.55;;;2.35;;
75061;SDS011;63641;46.526;24.612;2023-06-05T07:20:17;3.30;;;2.03;;
75061;SDS011;63641;46.526;24.612;2023-06-05T07:22:44;2.28;;;1.90;;
75061;SDS011;63641;46.526;24.612;2023-06-05T07:25:12;2.08;;;1.88;;
75061;SDS011;63641;46.526;24.612;2023-06-05T07:27:45;3.60;;;1.90;;
75061;SDS011;63641;46.526;24.612;2023-06-05T07:30:12;2.10;;;1.90;;
75061;SDS011;63641;46.526;24.612;2023-06-05T07:32:42;2.35;;;2.00;;
75061;SDS011;63641;46.526;24.612;2023-06-05T07:35:09;3.78;;;2.08;;
75061;SDS011;63641;46.526;24.612;2023-06-05T07:37:36;2.35;;;2.10;;
75061;SDS011;63641;46.526;24.612;2023-06-05T07:40:03;2.28;;;2.08;;
75061;SDS011;63641;46.526;24.612;2023-06-05T07:42:36;2.47;;;1.90;;
75061;SDS011;63641;46.526;24.612;2023-06-05T07:45:03;3.92;;;2.30;;
75061;SDS011;63641;46.526;24.612;2023-06-05T07:47:30;2.33;;;2.13;;
75061;SDS011;63641;46.526;24.612;2023-06-05T07:49:58;2.33;;;2.13;;
75061;SDS011;63641;46.526;24.612;2023-06-05T07:52:26;4.03;;;2.15;;
75061;SDS011;63641;46.526;24.612;2023-06-05T07:54:53;2.65;;;2.13;;
75061;SDS011;63641;46.526;24.612;2023-06-05T07:57:20;2.50;;;2.00;;
75061;SDS011;63641;46.526;24.612;2023-06-05T07:59:47;2.28;;;2.03;;
75061;SDS011;63641;46.526;24.612;2023-06-05T08:02:15;2.13;;;1.92;;
75061;SDS011;63641;46.526;24.612;2023-06-05T08:04:45;2.15;;;1.85;;
75061;SDS011;63641;46.526;24.612;2023-06-05T08:07:12;2.42;;;2.20;;
75061;SDS011;63641;46.526;24.612;2023-06-05T08:09:39;2.72;;;2.20;;
75061;SDS011;63641;46.526;24.612;2023-06-05T08:12:07;2.53;;;1.83;;
75061;SDS011;63641;46.526;24.612;2023-06-05T08:14:34;2.03;;;1.83;;
75061;SDS011;63641;46.526;24.612;2023-06-05T08:17:03;2.13;;;1.90;;
75061;SDS011;63641;46.526;24.612;2023-06-05T08:19:30;3.38;;;2.10;;
75061;SDS011;63641;46.526;24.612;2023-06-05T08:21:57;1.98;;;1.80;;
75061;SDS011;63641;46.526;24.612;2023-06-05T08:24:24;3.55;;;2.10;;
75061;SDS011;63641;46.526;24.612;2023-06-05T08:26:53;1.75;;;1.65;;
75061;SDS011;63641;46.526;24.612;2023-06-05T08:29:20;2.92;;;2.10;;
75061;SDS011;63641;46.526;24.612;2023-06-05T08:31:46;2.05;;;1.80;;
75061;SDS011;63641;46.526;24.612;2023-06-05T08:34:13;3.15;;;2.00;;
75061;SDS011;63641;46.526;24.612;2023-06-05T08:36:40;2.50;;;1.80;;
75061;SDS011;63641;46.526;24.612;2023-06-05T08:39:08;2.20;;;2.00;;
75061;SDS011;63641;46.526;24.612;2023-06-05T08:41:36;2.28;;;1.80;;
75061;SDS011;63641;46.526;24.612;2023-06-05T08:44:04;2.10;;;1.90;;
75061;SDS011;63641;46.526;24.612;2023-06-05T08:46:31;2.50;;;2.10;;
75061;SDS011;63641;46.526;24.612;2023-06-05T08:49:05;2.03;;;1.90;;
75061;SDS011;63641;46.526;24.612;2023-06-05T08:51:35;2.53;;;2.00;;
75061;SDS011;63641;46.526;24.612;2023-06-05T08:54:05;3.50;;;1.92;;
75061;SDS011;63641;46.526;24.612;2023-06-05T08:56:40;2.90;;;1.92;;
75061;SDS011;63641;46.526;24.612;2023-06-05T08:59:08;2.13;;;1.80;;
75061;SDS011;63641;46.526;24.612;2023-06-05T09:01:41;2.90;;;2.03;;
75061;SDS011;63641;46.526;24.612;2023-06-05T09:04:10;1.83;;;1.73;;
75061;SDS011;63641;46.526;24.612;2023-06-05T09:06:37;2.20;;;2.00;;
75061;SDS011;63641;46.526;24.612;2023-06-05T09:09:06;2.63;;;2.10;;
75061;SDS011;63641;46.526;24.612;2023-06-05T09:11:34;2.30;;;2.10;;
75061;SDS011;63641;46.526;24.612;2023-06-05T09:14:01;1.80;;;1.70;;
75061;SDS011;63641;46.526;24.612;2023-06-05T09:16:41;1.98;;;1.70;;
75061;SDS011;63641;46.526;24.612;2023-06-05T09:19:10;1.88;;;1.77;;
75061;SDS011;63641;46.526;24.612;2023-06-05T09:21:38;2.17;;;1.98;;
75061;SDS011;63641;46.526;24.612;2023-06-05T09:24:18;3.10;;;2.60;;
75061;SDS011;63641;46.526;24.612;2023-06-05T09:26:53;3.92;;;2.60;;
75061;SDS011;63641;46.526;24.612;2023-06-05T09:29:23;4.28;;;2.40;;
75061;SDS011;63641;46.526;24.612;2023-06-05T09:31:55;4.15;;;2.50;;
75061;SDS011;63641;46.526;24.612;2023-06-05T09:34:27;3.13;;;1.80;;
75061;SDS011;63641;46.526;24.612;2023-06-05T09:36:59;2.95;;;1.90;;
75061;SDS011;63641;46.526;24.612;2023-06-05T09:39:27;7.28;;;1.90;;
75061;SDS011;63641;46.526;24.612;2023-06-05T09:41:56;3.78;;;1.83;;
75061;SDS011;63641;46.526;24.612;2023-06-05T09:44:24;3.20;;;2.00;;
75061;SDS011;63641;46.526;24.612;2023-06-05T09:46:58;2.83;;;1.90;;
75061;SDS011;63641;46.526;24.612;2023-06-05T09:52:08;2.13;;;1.90;;
75061;SDS011;63641;46.526;24.612;2023-06-05T09:54:37;2.05;;;1.92;;
75061;SDS011;63641;46.526;24.612;2023-06-05T09:57:07;2.00;;;1.80;;
75061;SDS011;63641;46.526;24.612;2023-06-05T09:59:50;1.88;;;1.75;;
75061;SDS011;63641;46.526;24.612;2023-06-05T10:02:25;2.13;;;1.88;;
75061;SDS011;63641;46.526;24.612;2023-06-05T10:07:27;4.80;;;1.88;;
75061;SDS011;63641;46.526;24.612;2023-06-05T10:09:56;2.20;;;2.00;;
75061;SDS011;63641;46.526;24.612;2023-06-05T10:12:24;2.88;;;2.00;;
75061;SDS011;63641;46.526;24.612;2023-06-05T10:14:53;2.17;;;1.98;;
75061;SDS011;63641;46.526;24.612;2023-06-05T10:17:24;2.28;;;1.88;;
75061;SDS011;63641;46.526;24.612;2023-06-05T10:19:52;2.42;;;1.90;;
75061;SDS011;63641;46.526;24.612;2023-06-05T10:22:19;2.60;;;1.73;;
75061;SDS011;63641;46.526;24.612;2023-06-05T10:24:48;2.05;;;1.83;;
75061;SDS011;63641;46.526;24.612;2023-06-05T10:27:33;1.60;;;1.50;;
75061;SDS011;63641;46.526;24.612;2023-06-05T10:38:48;2.00;;;1.70;;
75061;SDS011;63641;46.526;24.612;2023-06-05T10:41:16;2.05;;;1.55;;
75061;SDS011;63641;46.526;24.612;2023-06-05T10:43:45;1.90;;;1.67;;
75061;SDS011;63641;46.526;24.612;2023-06-05T10:49:12;1.50;;;1.40;;
75061;SDS011;63641;46.526;24.612;2023-06-05T10:51:50;1.77;;;1.67;;
75061;SDS011;63641;46.526;24.612;2023-06-05T10:59:18;1.90;;;1.60;;
75061;SDS011;63641;46.526;24.612;2023-06-05T11:07:16;2.20;;;2.00;;
75061;SDS011;63641;46.526;24.612;2023-06-05T11:15:02;1.48;;;1.38;;
75061;SDS011;63641;46.526;24.612;2023-06-05T11:17:31;2.00;;;1.60;;
75061;SDS011;63641;46.526;24.612;2023-06-05T11:19:59;1.58;;;1.45;;
75061;SDS011;63641;46.526;24.612;2023-06-05T11:22:31;2.08;;;1.52;;
75061;SDS011;63641;46.526;24.612;2023-06-05T11:27:41;1.92;;;1.77;;
75061;SDS011;63641;46.526;24.612;2023-06-05T11:32:39;2.42;;;2.22;;
75061;SDS011;63641;46.526;24.612;2023-06-05T11:35:06;2.10;;;1.60;;
75061;SDS011;63641;46.526;24.612;2023-06-05T11:37:37;2.13;;;1.58;;
75061;SDS011;63641;46.526;24.612;2023-06-05T11:40:25;3.50;;;1.67;;
75061;SDS011;63641;46.526;24.612;2023-06-05T11:42:52;1.63;;;1.52;;
75061;SDS011;63641;46.526;24.612;2023-06-05T11:45:29;1.80;;;1.60;;
75061;SDS011;63641;46.526;24.612;2023-06-05T11:50:36;1.70;;;1.60;;
75061;SDS011;63641;46.526;24.612;2023-06-05T11:53:18;1.58;;;1.45;;
75061;SDS011;63641;46.526;24.612;2023-06-05T11:55:45;1.65;;;1.55;;
75061;SDS011;63641;46.526;24.612;2023-06-05T11:58:24;1.80;;;1.70;;
75061;SDS011;63641;46.526;24.612;2023-06-05T12:01:09;3.05;;;1.52;;
75061;SDS011;63641;46.526;24.612;2023-06-05T12:03:45;1.73;;;1.63;;
75061;SDS011;63641;46.526;24.612;2023-06-05T12:06:14;2.03;;;1.60;;
75061;SDS011;63641;46.526;24.612;2023-06-05T12:08:43;3.58;;;1.80;;
75061;SDS011;63641;46.526;24.612;2023-06-05T12:11:21;1.75;;;1.55;;
75061;SDS011;63641;46.526;24.612;2023-06-05T12:13:53;1.65;;;1.50;;
75061;SDS011;63641;46.526;24.612;2023-06-05T12:19:02;1.85;;;1.63;;
75061;SDS011;63641;46.526;24.612;2023-06-05T12:21:41;2.42;;;1.70;;
75061;SDS011;63641;46.526;24.612;2023-06-05T12:24:08;3.53;;;1.80;;
75061;SDS011;63641;46.526;24.612;2023-06-05T12:29:25;1.67;;;1.50;;
75061;SDS011;63641;46.526;24.612;2023-06-05T12:31:55;1.50;;;1.40;;
75061;SDS011;63641;46.526;24.612;2023-06-05T12:37:26;1.60;;;1.50;;
75061;SDS011;63641;46.526;24.612;2023-06-05T12:39:59;3.28;;;1.33;;
75061;SDS011;63641;46.526;24.612;2023-06-05T12:42:27;2.88;;;1.45;;
75061;SDS011;63641;46.526;24.612;2023-06-05T12:44:54;1.50;;;1.40;;
75061;SDS011;63641;46.526;24.612;2023-06-05T12:47:21;3.10;;;1.80;;
75061;SDS011;63641;46.526;24.612;2023-06-05T12:49:48;1.60;;;1.50;;
75061;SDS011;63641;46.526;24.612;2023-06-05T12:52:16;1.60;;;1.50;;
75061;SDS011;63641;46.526;24.612;2023-06-05T12:54:43;1.80;;;1.65;;
75061;SDS011;63641;46.526;24.612;2023-06-05T12:57:09;1.80;;;1.50;;
75061;SDS011;63641;46.526;24.612;2023-06-05T12:59:39;1.50;;;1.40;;
75061;SDS011;63641;46.526;24.612;2023-06-05T13:02:06;1.75;;;1.42;;
75061;SDS011;63641;46.526;24.612;2023-06-05T13:04:34;1.83;;;1.45;;
75061;SDS011;63641;46.526;24.612;2023-06-05T13:07:02;1.67;;;1.30;;
75061;SDS011;63641;46.526;24.612;2023-06-05T13:09:30;2.50;;;1.50;;
75061;SDS011;63641;46.526;24.612;2023-06-05T13:11:57;1.55;;;1.45;;
75061;SDS011;63641;46.526;24.612;2023-06-05T13:14:26;2.03;;;1.45;;
75061;SDS011;63641;46.526;24.612;2023-06-05T13:16:53;2.25;;;1.95;;
75061;SDS011;63641;46.526;24.612;2023-06-05T13:19:20;3.22;;;1.95;;
75061;SDS011;63641;46.526;24.612;2023-06-05T13:21:47;1.33;;;1.23;;
75061;SDS011;63641;46.526;24.612;2023-06-05T13:24:14;2.65;;;1.67;;
75061;SDS011;63641;46.526;24.612;2023-06-05T13:26:41;1.45;;;1.35;;
75061;SDS011;63641;46.526;24.612;2023-06-05T13:29:09;1.60;;;1.27;;
75061;SDS011;63641;46.526;24.612;2023-06-05T13:31:36;3.88;;;1.60;;
75061;SDS011;63641;46.526;24.612;2023-06-05T13:34:03;1.70;;;1.42;;
75061;SDS011;63641;46.526;24.612;2023-06-05T13:36:30;1.40;;;1.30;;
75061;SDS011;63641;46.526;24.612;2023-06-05T13:38:58;5.78;;;4.70;;
75061;SDS011;63641;46.526;24.612;2023-06-05T13:41:24;2.35;;;2.10;;
75061;SDS011;63641;46.526;24.612;2023-06-05T13:43:52;2.03;;;1.58;;
75061;SDS011;63641;46.526;24.612;2023-06-05T13:46:19;1.52;;;1.27;;
75061;SDS011;63641;46.526;24.612;2023-06-05T13:48:46;1.60;;;1.50;;
75061;SDS011;63641;46.526;24.612;2023-06-05T13:51:13;2.97;;;2.20;;
75061;SDS011;63641;46.526;24.612;2023-06-05T13:53:40;1.60;;;1.50;;
75061;SDS011;63641;46.526;24.612;2023-06-05T13:56:07;1.92;;;1.55;;
75061;SDS011;63641;46.526;24.612;2023-06-05T13:58:34;2.90;;;1.40;;
75061;SDS011;63641;46.526;24.612;2023-06-05T14:01:01;1.77;;;1.52;;
75061;SDS011;63641;46.526;24.612;2023-06-05T14:03:28;2.58;;;1.40;;
75061;SDS011;63641;46.526;24.612;2023-06-05T14:05:55;3.42;;;1.75;;
75061;SDS011;63641;46.526;24.612;2023-06-05T14:08:22;2.55;;;2.13;;
75061;SDS011;63641;46.526;24.612;2023-06-05T14:10:48;2.00;;;1.80;;
75061;SDS011;63641;46.526;24.612;2023-06-05T14:13:15;2.22;;;1.40;;
75061;SDS011;63641;46.526;24.612;2023-06-05T14:15:42;2.53;;;1.48;;
75061;SDS011;63641;46.526;24.612;2023-06-05T14:18:09;5.07;;;1.50;;
75061;SDS011;63641;46.526;24.612;2023-06-05T14:20:38;1.77;;;1.42;;
75061;SDS011;63641;46.526;24.612;2023-06-05T14:23:06;3.33;;;1.30;;
75061;SDS011;63641;46.526;24.612;2023-06-05T14:25:32;1.45;;;1.35;;
75061;SDS011;63641;46.526;24.612;2023-06-05T14:27:59;2.25;;;1.40;;
75061;SDS011;63641;46.526;24.612;2023-06-05T14:30:26;1.23;;;1.13;;
75061;SDS011;63641;46.526;24.612;2023-06-05T14:32:53;1.17;;;1.17;;
75061;SDS011;63641;46.526;24.612;2023-06-05T14:35:21;2.50;;;1.55;;
75061;SDS011;63641;46.526;24.612;2023-06-05T14:37:48;1.63;;;1.52;;
75061;SDS011;63641;46.526;24.612;2023-06-05T14:40:15;2.97;;;1.70;;
75061;SDS011;63641;46.526;24.612;2023-06-05T14:42:42;2.90;;;1.67;;
75061;SDS011;63641;46.526;24.612;2023-06-05T14:45:09;2.67;;;1.60;;
75061;SDS011;63641;46.526;24.612;2023-06-05T14:47:37;2.08;;;1.35;;
75061;SDS011;63641;46.526;24.612;2023-06-05T14:50:05;1.98;;;1.50;;
75061;SDS011;63641;46.526;24.612;2023-06-05T14:52:33;1.60;;;1.50;;
75061;SDS011;63641;46.526;24.612;2023-06-05T14:55:01;3.40;;;1.48;;
75061;SDS011;63641;46.526;24.612;2023-06-05T14:57:31;2.65;;;1.55;;
75061;SDS011;63641;46.526;24.612;2023-06-05T14:59:58;2.30;;;1.45;;
75061;SDS011;63641;46.526;24.612;2023-06-05T15:02:25;2.33;;;1.83;;
75061;SDS011;63641;46.526;24.612;2023-06-05T15:04:52;5.20;;;1.50;;
75061;SDS011;63641;46.526;24.612;2023-06-05T15:07:19;7.97;;;1.73;;
75061;SDS011;63641;46.526;24.612;2023-06-05T15:09:47;1.55;;;1.42;;
75061;SDS011;63641;46.526;24.612;2023-06-05T15:12:14;2.45;;;1.50;;
75061;SDS011;63641;46.526;24.612;2023-06-05T15:14:41;1.40;;;1.30;;
75061;SDS011;63641;46.526;24.612;2023-06-05T15:17:08;4.18;;;1.70;;
75061;SDS011;63641;46.526;24.612;2023-06-05T15:19:35;4.20;;;1.50;;
75061;SDS011;63641;46.526;24.612;2023-06-05T15:22:07;3.90;;;2.05;;
75061;SDS011;63641;46.526;24.612;2023-06-05T15:24:33;1.50;;;1.40;;
75061;SDS011;63641;46.526;24.612;2023-06-05T15:27:01;2.20;;;1.58;;
75061;SDS011;63641;46.526;24.612;2023-06-05T15:29:29;1.60;;;1.35;;
75061;SDS011;63641;46.526;24.612;2023-06-05T15:31:56;2.03;;;1.40;;